Time,TemperatureF,DewpointF,PressureIn,WindDirection,WindDirectionDegrees,WindSpeedMPH,WindSpeedGustMPH,Humidity,HourlyPrecipIn,Conditions,Clouds,dailyrainin,SolarRadiationWatts/m^2,SoftwareType,DateUTC
2013-02-25 08:23:00,40.3,37.3,30.29,SSW,202,0.0,5.0,89,0.00,,,0.00,250,Wunderground v.1.15,2013-02-25 16:23:00,
2013-02-25 08:29:00,41.6,38.0,30.28,SSW,194,1.0,5.0,87,0.00,,,0.00,269,Wunderground v.1.15,2013-02-25 16:29:00,
2013-02-25 08:34:00,42.3,38.1,30.28,SSW,194,0.0,2.0,85,0.00,,,0.00,271,Wunderground v.1.15,2013-02-25 16:34:00,
2013-02-25 08:37:00,42.9,38.1,30.28,SSW,194,0.0,2.0,83,0.00,,,0.00,264,Wunderground v.1.15,2013-02-25 16:37:00,
2013-02-25 08:43:00,43.8,38.3,30.28,SSW,194,0.0,2.0,81,0.00,,,0.00,299,Wunderground v.1.15,2013-02-25 16:43:00,
2013-02-25 08:49:00,45.2,38.4,30.28,SSW,193,0.0,2.0,77,0.00,,,0.00,322,Wunderground v.1.15,2013-02-25 16:49:00,
2013-02-25 08:56:00,46.5,38.7,30.28,East,94,0.0,3.0,74,0.00,,,0.00,332,Wunderground v.1.15,2013-02-25 16:56:00,
2013-02-25 09:02:00,47.6,38.3,30.28,East,81,1.0,2.0,70,0.00,,,0.00,362,Wunderground v.1.15,2013-02-25 17:02:00,
2013-02-25 09:08:00,48.2,38.1,30.28,ENE,61,2.0,3.0,68,0.00,,,0.00,381,Wunderground v.1.15,2013-02-25 17:08:00,
2013-02-25 09:13:00,48.7,38.6,30.27,ENE,61,1.0,3.0,68,0.00,,,0.00,392,Wunderground v.1.15,2013-02-25 17:13:00,
2013-02-25 09:20:00,49.6,38.3,30.27,West,262,1.0,3.0,65,0.00,,,0.00,417,Wunderground v.1.15,2013-02-25 17:20:00,
2013-02-25 09:25:00,50.0,37.9,30.27,NW,326,3.0,4.0,63,0.00,,,0.00,438,Wunderground v.1.15,2013-02-25 17:25:00,
2013-02-25 09:31:00,50.3,37.8,30.27,NW,322,5.0,6.0,62,0.00,,,0.00,452,Wunderground v.1.15,2013-02-25 17:31:00,
2013-02-25 09:37:00,50.9,37.9,30.27,NNW,328,5.0,6.0,61,0.00,,,0.00,457,Wunderground v.1.15,2013-02-25 17:37:00,
2013-02-25 09:44:00,51.3,38.3,30.27,NW,304,5.0,9.0,61,0.00,,,0.00,480,Wunderground v.1.15,2013-02-25 17:44:00,
2013-02-25 09:49:00,51.8,37.9,30.27,WNW,300,5.0,5.0,59,0.00,,,0.00,497,Wunderground v.1.15,2013-02-25 17:49:00,
2013-02-25 09:56:00,52.5,38.6,30.27,NW,313,3.0,5.0,59,0.00,,,0.00,513,Wunderground v.1.15,2013-02-25 17:56:00,
2013-02-25 10:02:00,53.3,38.9,30.27,NNW,345,2.0,10.0,58,0.00,,,0.00,531,Wunderground v.1.15,2013-02-25 18:02:00,
2013-02-25 10:08:00,54.0,39.1,30.27,NW,321,3.0,10.0,57,0.00,,,0.00,543,Wunderground v.1.15,2013-02-25 18:08:00,
2013-02-25 10:13:00,54.3,38.9,30.27,NW,317,4.0,10.0,56,0.00,,,0.00,557,Wunderground v.1.15,2013-02-25 18:13:00,
2013-02-25 10:20:00,54.7,39.3,30.26,WNW,287,4.0,10.0,56,0.00,,,0.00,570,Wunderground v.1.15,2013-02-25 18:20:00,
2013-02-25 10:26:00,55.0,39.6,30.26,WNW,290,4.0,10.0,56,0.00,,,0.00,582,Wunderground v.1.15,2013-02-25 18:26:00,
2013-02-25 10:31:00,55.3,39.9,30.26,WNW,291,4.0,10.0,56,0.00,,,0.00,594,Wunderground v.1.15,2013-02-25 18:31:00,
2013-02-25 10:38:00,55.7,39.8,30.25,WNW,290,5.0,10.0,55,0.00,,,0.00,605,Wunderground v.1.15,2013-02-25 18:38:00,
2013-02-25 10:43:00,56.0,40.1,30.26,NW,325,5.0,10.0,55,0.00,,,0.00,617,Wunderground v.1.15,2013-02-25 18:43:00,
2013-02-25 10:50:00,56.4,40.0,30.26,WNW,299,5.0,10.0,54,0.00,,,0.00,626,Wunderground v.1.15,2013-02-25 18:50:00,
2013-02-25 10:56:00,56.7,40.2,30.26,West,281,6.0,10.0,54,0.00,,,0.00,635,Wunderground v.1.15,2013-02-25 18:56:00,
2013-02-25 11:02:00,57.1,40.6,30.25,West,275,5.0,11.0,54,0.00,,,0.00,645,Wunderground v.1.15,2013-02-25 19:02:00,
2013-02-25 11:08:00,57.3,40.8,30.25,West,270,6.0,11.0,54,0.00,,,0.00,654,Wunderground v.1.15,2013-02-25 19:08:00,
2013-02-25 11:14:00,58.1,41.0,30.25,WSW,249,5.0,11.0,53,0.00,,,0.00,663,Wunderground v.1.15,2013-02-25 19:14:00,
2013-02-25 11:19:00,58.5,40.9,30.25,WSW,257,5.0,5.0,52,0.00,,,0.00,668,Wunderground v.1.15,2013-02-25 19:19:00,
2013-02-25 11:25:00,58.8,41.2,30.25,West,263,6.0,11.0,52,0.00,,,0.00,675,Wunderground v.1.15,2013-02-25 19:25:00,
2013-02-25 11:31:00,59.3,42.2,30.25,West,271,5.0,11.0,53,0.00,,,0.00,680,Wunderground v.1.15,2013-02-25 19:31:00,
2013-02-25 11:38:00,60.0,41.8,30.25,West,271,5.0,11.0,51,0.00,,,0.00,687,Wunderground v.1.15,2013-02-25 19:38:00,
2013-02-25 11:43:00,60.1,41.9,30.24,West,275,6.0,11.0,51,0.00,,,0.00,691,Wunderground v.1.15,2013-02-25 19:43:00,
2013-02-25 11:49:00,60.7,42.5,30.24,WNW,291,6.0,11.0,51,0.00,,,0.00,694,Wunderground v.1.15,2013-02-25 19:49:00,
2013-02-25 11:56:00,61.1,41.8,30.24,WNW,292,6.0,11.0,49,0.00,,,0.00,700,Wunderground v.1.15,2013-02-25 19:56:00,
2013-02-25 12:01:00,61.4,42.1,30.24,NW,316,6.0,13.0,49,0.00,,,0.00,701,Wunderground v.1.15,2013-02-25 20:01:00,
2013-02-25 12:07:00,61.9,42.0,30.24,WNW,294,5.0,13.0,48,0.00,,,0.00,705,Wunderground v.1.15,2013-02-25 20:07:00,
2013-02-25 12:14:00,62.2,41.2,30.24,West,277,5.0,13.0,46,0.00,,,0.00,705,Wunderground v.1.15,2013-02-25 20:14:00,
2013-02-25 12:20:00,62.9,41.8,30.23,NW,312,3.0,13.0,46,0.00,,,0.00,705,Wunderground v.1.15,2013-02-25 20:20:00,
2013-02-25 12:26:00,63.4,41.7,30.23,NNW,336,2.0,13.0,45,0.00,,,0.00,707,Wunderground v.1.15,2013-02-25 20:26:00,
2013-02-25 12:31:00,63.6,41.3,30.23,West,265,3.0,5.0,44,0.00,,,0.00,700,Wunderground v.1.15,2013-02-25 20:31:00,
2013-02-25 12:38:00,63.7,41.4,30.22,SW,223,4.0,13.0,44,0.00,,,0.00,686,Wunderground v.1.15,2013-02-25 20:38:00,
2013-02-25 12:43:00,64.0,41.0,30.22,WSW,254,4.0,13.0,43,0.00,,,0.00,698,Wunderground v.1.15,2013-02-25 20:43:00,
2013-02-25 12:49:00,64.0,41.6,30.22,WSW,254,4.0,13.0,44,0.00,,,0.00,698,Wunderground v.1.15,2013-02-25 20:49:00,
2013-02-25 12:56:00,64.1,41.1,30.22,NW,313,5.0,13.0,43,0.00,,,0.00,698,Wunderground v.1.15,2013-02-25 20:56:00,
2013-02-25 13:02:00,64.5,42.1,30.22,West,273,5.0,12.0,44,0.00,,,0.00,691,Wunderground v.1.15,2013-02-25 21:02:00,
2013-02-25 13:08:00,65.1,41.4,30.22,WNW,288,4.0,12.0,42,0.00,,,0.00,689,Wunderground v.1.15,2013-02-25 21:08:00,
2013-02-25 13:13:00,65.4,41.1,30.22,West,259,4.0,12.0,41,0.00,,,0.00,684,Wunderground v.1.15,2013-02-25 21:13:00,
2013-02-25 13:19:00,65.6,41.3,30.22,NNW,341,4.0,12.0,41,0.00,,,0.00,677,Wunderground v.1.15,2013-02-25 21:19:00,
2013-02-25 13:25:00,65.9,40.2,30.21,WSW,251,6.0,12.0,39,0.00,,,0.00,671,Wunderground v.1.15,2013-02-25 21:25:00,
2013-02-25 13:31:00,66.0,40.3,30.21,WSW,253,5.0,12.0,39,0.00,,,0.00,664,Wunderground v.1.15,2013-02-25 21:31:00,
2013-02-25 13:37:00,66.3,39.9,30.20,WNW,286,5.0,12.0,38,0.00,,,0.00,659,Wunderground v.1.15,2013-02-25 21:37:00,
2013-02-25 13:43:00,66.8,40.4,30.20,NW,314,4.0,12.0,38,0.00,,,0.00,650,Wunderground v.1.15,2013-02-25 21:43:00,
2013-02-25 13:49:00,67.1,39.9,30.20,WNW,294,2.0,2.0,37,0.00,,,0.00,643,Wunderground v.1.15,2013-02-25 21:49:00,
2013-02-25 13:56:00,67.3,40.1,30.20,WNW,292,2.0,13.0,37,0.00,,,0.00,633,Wunderground v.1.15,2013-02-25 21:56:00,
2013-02-25 14:01:00,67.3,39.4,30.20,WSW,253,3.0,12.0,36,0.00,,,0.00,629,Wunderground v.1.15,2013-02-25 22:01:00,
2013-02-25 14:08:00,67.5,38.9,30.20,WNW,291,4.0,12.0,35,0.00,,,0.00,617,Wunderground v.1.15,2013-02-25 22:08:00,
2013-02-25 14:13:00,67.8,39.1,30.19,NNW,340,4.0,12.0,35,0.00,,,0.00,606,Wunderground v.1.15,2013-02-25 22:13:00,
2013-02-25 14:20:00,68.1,38.7,30.20,West,263,3.0,3.0,34,0.00,,,0.00,596,Wunderground v.1.15,2013-02-25 22:20:00,
2013-02-25 14:26:00,68.2,38.0,30.20,NW,312,3.0,12.0,33,0.00,,,0.00,585,Wunderground v.1.15,2013-02-25 22:26:00,
2013-02-25 14:32:00,68.6,37.5,30.20,NW,323,3.0,12.0,32,0.00,,,0.00,571,Wunderground v.1.15,2013-02-25 22:32:00,
2013-02-25 14:38:00,68.5,37.5,30.19,WNW,302,4.0,12.0,32,0.00,,,0.00,561,Wunderground v.1.15,2013-02-25 22:38:00,
2013-02-25 14:43:00,68.4,38.2,30.19,WNW,284,5.0,12.0,33,0.00,,,0.00,547,Wunderground v.1.15,2013-02-25 22:43:00,
2013-02-25 14:49:00,68.2,38.0,30.19,WNW,296,6.0,6.0,33,0.00,,,0.00,534,Wunderground v.1.15,2013-02-25 22:49:00,
2013-02-25 14:55:00,68.0,37.0,30.19,WNW,283,6.0,12.0,32,0.00,,,0.00,519,Wunderground v.1.15,2013-02-25 22:55:00,
2013-02-25 15:01:00,67.7,36.8,30.19,NNW,331,5.0,13.0,32,0.00,,,0.00,504,Wunderground v.1.15,2013-02-25 23:01:00,
2013-02-25 15:07:00,67.9,37.7,30.19,NW,311,5.0,13.0,33,0.00,,,0.00,487,Wunderground v.1.15,2013-02-25 23:07:00,
2013-02-25 15:14:00,68.1,35.5,30.18,SW,234,4.0,13.0,30,0.00,,,0.00,475,Wunderground v.1.15,2013-02-25 23:14:00,
2013-02-25 15:20:00,68.4,35.7,30.19,West,275,4.0,4.0,30,0.00,,,0.00,459,Wunderground v.1.15,2013-02-25 23:20:00,
2013-02-25 15:26:00,68.6,35.1,30.18,West,273,2.0,13.0,29,0.00,,,0.00,441,Wunderground v.1.15,2013-02-25 23:26:00,
2013-02-25 15:32:00,69.1,35.5,30.18,NNE,27,2.0,13.0,29,0.00,,,0.00,424,Wunderground v.1.15,2013-02-25 23:32:00,
2013-02-25 15:37:00,68.9,35.3,30.18,North,360,4.0,13.0,29,0.00,,,0.00,408,Wunderground v.1.15,2013-02-25 23:37:00,
2013-02-25 15:43:00,68.7,35.1,30.18,NNE,20,3.0,13.0,29,0.00,,,0.00,392,Wunderground v.1.15,2013-02-25 23:43:00,
2013-02-25 15:49:00,68.4,34.0,30.18,NNE,20,2.0,2.0,28,0.00,,,0.00,374,Wunderground v.1.15,2013-02-25 23:49:00,
2013-02-25 15:56:00,68.4,34.9,30.18,NE,36,0.0,13.0,29,0.00,,,0.00,353,Wunderground v.1.15,2013-02-25 23:56:00,
2013-02-25 16:01:00,68.4,41.8,30.18,SW,217,1.0,12.0,38,0.00,,,0.00,338,Wunderground v.1.15,2013-02-26 00:01:00,
2013-02-25 16:08:00,67.5,41.7,30.18,SSW,199,3.0,12.0,39,0.00,,,0.00,318,Wunderground v.1.15,2013-02-26 00:08:00,
2013-02-25 16:14:00,67.3,42.8,30.18,West,265,2.0,12.0,41,0.00,,,0.00,299,Wunderground v.1.15,2013-02-26 00:14:00,
2013-02-25 16:20:00,67.0,42.5,30.17,South,180,3.0,3.0,41,0.00,,,0.00,278,Wunderground v.1.15,2013-02-26 00:20:00,
2013-02-25 16:25:00,66.7,41.6,30.17,South,169,2.0,12.0,40,0.00,,,0.00,253,Wunderground v.1.15,2013-02-26 00:25:00,
2013-02-25 16:32:00,66.5,42.7,30.17,SE,133,3.0,12.0,42,0.00,,,0.00,230,Wunderground v.1.15,2013-02-26 00:32:00,
2013-02-25 16:37:00,65.8,43.3,30.17,SSE,163,4.0,12.0,44,0.00,,,0.00,206,Wunderground v.1.15,2013-02-26 00:37:00,
2013-02-25 16:44:00,65.2,43.3,30.17,SE,133,2.0,6.0,45,0.00,,,0.00,176,Wunderground v.1.15,2013-02-26 00:44:00,
2013-02-25 16:49:00,64.5,43.8,30.17,SSE,150,2.0,12.0,47,0.00,,,0.00,153,Wunderground v.1.15,2013-02-26 00:49:00,
2013-02-25 16:55:00,64.0,44.4,30.17,SE,136,3.0,12.0,49,0.00,,,0.00,60,Wunderground v.1.15,2013-02-26 00:55:00,
2013-02-25 17:01:00,63.3,44.3,30.17,SE,143,4.0,13.0,50,0.00,,,0.00,44,Wunderground v.1.15,2013-02-26 01:01:00,
2013-02-25 17:07:00,62.6,44.2,30.17,SE,133,3.0,13.0,51,0.00,,,0.00,32,Wunderground v.1.15,2013-02-26 01:07:00,
2013-02-25 17:14:00,61.9,43.6,30.17,SE,143,4.0,13.0,51,0.00,,,0.00,28,Wunderground v.1.15,2013-02-26 01:14:00,
2013-02-25 17:19:00,61.4,43.6,30.17,SE,139,4.0,4.0,52,0.00,,,0.00,28,Wunderground v.1.15,2013-02-26 01:19:00,
2013-02-25 17:25:00,61.0,43.7,30.18,SE,127,3.0,13.0,53,0.00,,,0.00,25,Wunderground v.1.15,2013-02-26 01:25:00,
2013-02-25 17:32:00,60.5,43.3,30.18,SE,136,2.0,13.0,53,0.00,,,0.00,21,Wunderground v.1.15,2013-02-26 01:32:00,
2013-02-25 17:38:00,60.2,43.0,30.18,SSE,159,2.0,13.0,53,0.00,,,0.00,18,Wunderground v.1.15,2013-02-26 01:38:00,
2013-02-25 17:43:00,59.9,43.2,30.18,SE,125,2.0,13.0,54,0.00,,,0.00,14,Wunderground v.1.15,2013-02-26 01:43:00,
2013-02-25 17:50:00,59.5,42.8,30.18,ESE,110,2.0,13.0,54,0.00,,,0.00,11,Wunderground v.1.15,2013-02-26 01:50:00,
2013-02-25 17:55:00,59.1,42.5,30.19,ESE,112,2.0,13.0,54,0.00,,,0.00,7,Wunderground v.1.15,2013-02-26 01:55:00,
2013-02-25 18:02:00,58.7,42.6,30.19,ESE,111,1.0,13.0,55,0.00,,,0.00,0,Wunderground v.1.15,2013-02-26 02:02:00,
2013-02-25 18:08:00,58.3,42.7,30.19,ESE,112,1.0,13.0,56,0.00,,,0.00,0,Wunderground v.1.15,2013-02-26 02:08:00,
2013-02-25 18:13:00,57.9,42.3,30.19,ESE,111,1.0,13.0,56,0.00,,,0.00,0,Wunderground v.1.15,2013-02-26 02:13:00,
2013-02-25 18:20:00,57.4,42.3,30.19,ESE,111,1.0,1.0,57,0.00,,,0.00,0,Wunderground v.1.15,2013-02-26 02:20:00,
2013-02-25 18:26:00,57.1,42.5,30.19,ESE,111,0.0,13.0,58,0.00,,,0.00,0,Wunderground v.1.15,2013-02-26 02:26:00,
2013-02-25 18:31:00,56.9,42.3,30.20,ESE,111,0.0,13.0,58,0.00,,,0.00,0,Wunderground v.1.15,2013-02-26 02:31:00,
2013-02-25 18:37:00,56.6,42.4,30.21,ESE,111,0.0,13.0,59,0.00,,,0.00,0,Wunderground v.1.15,2013-02-26 02:37:00,
2013-02-25 18:43:00,56.1,42.4,30.20,ESE,111,0.0,13.0,60,0.00,,,0.00,0,Wunderground v.1.15,2013-02-26 02:43:00,
2013-02-25 18:49:00,55.5,42.3,30.20,ESE,111,0.0,13.0,61,0.00,,,0.00,0,Wunderground v.1.15,2013-02-26 02:49:00,
2013-02-25 18:55:00,55.0,42.2,30.20,ESE,111,0.0,13.0,62,0.00,,,0.00,0,Wunderground v.1.15,2013-02-26 02:55:00,
2013-02-25 19:01:00,54.5,41.7,30.20,ESE,111,0.0,4.0,62,0.00,,,0.00,0,Wunderground v.1.15,2013-02-26 03:01:00,
2013-02-25 19:07:00,54.1,41.8,30.21,ESE,111,0.0,4.0,63,0.00,,,0.00,0,Wunderground v.1.15,2013-02-26 03:07:00,
2013-02-25 19:13:00,53.6,41.3,30.20,ESE,111,0.0,4.0,63,0.00,,,0.00,0,Wunderground v.1.15,2013-02-26 03:13:00,
2013-02-25 19:19:00,53.1,41.2,30.20,ESE,111,0.0,4.0,64,0.00,,,0.00,0,Wunderground v.1.15,2013-02-26 03:19:00,
2013-02-25 19:25:00,52.5,41.1,30.20,ESE,111,0.0,4.0,65,0.00,,,0.00,0,Wunderground v.1.15,2013-02-26 03:25:00,
2013-02-25 19:31:00,52.0,41.0,30.20,ESE,111,0.0,4.0,66,0.00,,,0.00,0,Wunderground v.1.15,2013-02-26 03:31:00,
2013-02-25 19:37:00,51.6,41.0,30.20,ESE,111,0.0,4.0,67,0.00,,,0.00,0,Wunderground v.1.15,2013-02-26 03:37:00,
2013-02-25 19:43:00,51.1,40.5,30.20,ESE,111,0.0,4.0,67,0.00,,,0.00,0,Wunderground v.1.15,2013-02-26 03:43:00,
2013-02-25 19:50:00,50.6,40.8,30.21,ESE,111,0.0,4.0,69,0.00,,,0.00,0,Wunderground v.1.15,2013-02-26 03:50:00,
2013-02-25 19:56:00,50.0,40.2,30.21,ESE,111,0.0,4.0,69,0.00,,,0.00,0,Wunderground v.1.15,2013-02-26 03:56:00,
2013-02-25 20:01:00,49.4,40.4,30.21,East,101,1.0,2.0,71,0.00,,,0.00,0,Wunderground v.1.15,2013-02-26 04:01:00,
2013-02-25 20:08:00,49.1,40.8,30.21,WNW,303,1.0,3.0,73,0.00,,,0.00,0,Wunderground v.1.15,2013-02-26 04:08:00,
2013-02-25 20:14:00,48.8,40.9,30.21,WNW,303,0.0,1.0,74,0.00,,,0.00,0,Wunderground v.1.15,2013-02-26 04:14:00,
2013-02-25 20:20:00,48.6,40.7,30.22,WNW,303,0.0,1.0,74,0.00,,,0.00,0,Wunderground v.1.15,2013-02-26 04:20:00,
2013-02-25 20:25:00,48.3,40.7,30.22,WNW,303,0.0,1.0,75,0.00,,,0.00,0,Wunderground v.1.15,2013-02-26 04:25:00,
2013-02-25 20:31:00,48.1,40.5,30.22,WNW,303,0.0,1.0,75,0.00,,,0.00,0,Wunderground v.1.15,2013-02-26 04:31:00,
2013-02-25 20:37:00,47.9,40.4,30.22,WNW,303,0.0,1.0,75,0.00,,,0.00,0,Wunderground v.1.15,2013-02-26 04:37:00,
2013-02-25 20:44:00,47.6,40.1,30.22,WNW,303,0.0,1.0,75,0.00,,,0.00,0,Wunderground v.1.15,2013-02-26 04:44:00,
2013-02-25 20:49:00,47.3,40.1,30.22,WNW,303,0.0,1.0,76,0.00,,,0.00,0,Wunderground v.1.15,2013-02-26 04:49:00,
2013-02-25 20:55:00,46.9,39.7,30.23,WNW,303,0.0,1.0,76,0.00,,,0.00,0,Wunderground v.1.15,2013-02-26 04:55:00,
2013-02-25 21:00:00,46.7,39.9,30.23,WNW,303,0.0,2.0,77,0.00,,,0.00,0,Wunderground v.1.15,2013-02-26 05:00:00,
2013-02-25 21:02:00,46.5,39.7,30.23,WNW,303,0.0,2.0,77,0.00,,,0.00,0,Wunderground v.1.15,2013-02-26 05:02:00,
2013-02-25 21:07:00,46.2,39.7,30.23,WNW,303,0.0,2.0,78,0.00,,,0.00,0,Wunderground v.1.15,2013-02-26 05:07:00,
2013-02-25 21:13:00,45.9,39.4,30.23,WNW,303,0.0,2.0,78,0.00,,,0.00,0,Wunderground v.1.15,2013-02-26 05:13:00,
2013-02-25 21:19:00,45.6,39.1,30.23,WNW,303,0.0,2.0,78,0.00,,,0.00,0,Wunderground v.1.15,2013-02-26 05:19:00,
2013-02-25 21:25:00,45.4,39.3,30.23,WNW,303,0.0,2.0,79,0.00,,,0.00,0,Wunderground v.1.15,2013-02-26 05:25:00,
2013-02-25 21:31:00,45.2,39.1,30.23,WNW,303,0.0,2.0,79,0.00,,,0.00,0,Wunderground v.1.15,2013-02-26 05:31:00,
2013-02-25 21:37:00,44.9,38.8,30.23,WNW,303,0.0,2.0,79,0.00,,,0.00,0,Wunderground v.1.15,2013-02-26 05:37:00,
2013-02-25 21:44:00,44.5,38.7,30.23,WNW,303,0.0,2.0,80,0.00,,,0.00,0,Wunderground v.1.15,2013-02-26 05:44:00,
2013-02-25 21:49:00,44.2,38.4,30.23,WNW,303,0.0,2.0,80,0.00,,,0.00,0,Wunderground v.1.15,2013-02-26 05:49:00,
2013-02-25 21:56:00,43.8,38.0,30.23,WNW,303,0.0,2.0,80,0.00,,,0.00,0,Wunderground v.1.15,2013-02-26 05:56:00,
2013-02-25 22:01:00,43.5,37.7,30.23,WNW,303,0.0,1.0,80,0.00,,,0.00,0,Wunderground v.1.15,2013-02-26 06:01:00,
2013-02-25 22:07:00,43.3,37.5,30.23,WNW,303,0.0,1.0,80,0.00,,,0.00,0,Wunderground v.1.15,2013-02-26 06:07:00,
2013-02-25 22:13:00,42.9,37.5,30.24,WNW,303,0.0,1.0,81,0.00,,,0.00,0,Wunderground v.1.15,2013-02-26 06:13:00,
2013-02-25 22:20:00,42.5,37.4,30.23,WNW,303,0.0,1.0,82,0.00,,,0.00,0,Wunderground v.1.15,2013-02-26 06:20:00,
2013-02-25 22:25:00,42.2,37.1,30.23,WNW,303,0.0,1.0,82,0.00,,,0.00,0,Wunderground v.1.15,2013-02-26 06:25:00,
2013-02-25 22:32:00,41.9,36.8,30.23,WNW,303,0.0,1.0,82,0.00,,,0.00,0,Wunderground v.1.15,2013-02-26 06:32:00,
2013-02-25 22:37:00,41.7,36.9,30.23,WNW,303,0.0,1.0,83,0.00,,,0.00,0,Wunderground v.1.15,2013-02-26 06:37:00,
2013-02-25 22:43:00,41.5,36.7,30.23,WNW,303,0.0,1.0,83,0.00,,,0.00,0,Wunderground v.1.15,2013-02-26 06:43:00,
2013-02-25 22:49:00,41.3,36.8,30.23,WNW,303,0.0,1.0,84,0.00,,,0.00,0,Wunderground v.1.15,2013-02-26 06:49:00,
2013-02-25 22:55:00,41.0,36.5,30.23,WNW,303,0.0,1.0,84,0.00,,,0.00,0,Wunderground v.1.15,2013-02-26 06:55:00,
2013-02-25 23:01:00,40.8,36.3,30.24,WNW,303,0.0,2.0,84,0.00,,,0.00,0,Wunderground v.1.15,2013-02-26 07:01:00,
2013-02-25 23:08:00,40.7,36.2,30.23,WNW,303,0.0,2.0,84,0.00,,,0.00,0,Wunderground v.1.15,2013-02-26 07:08:00,
2013-02-25 23:13:00,40.5,36.0,30.23,WNW,303,0.0,2.0,84,0.00,,,0.00,0,Wunderground v.1.15,2013-02-26 07:13:00,
2013-02-25 23:19:00,40.3,35.8,30.23,WNW,303,0.0,2.0,84,0.00,,,0.00,0,Wunderground v.1.15,2013-02-26 07:19:00,
2013-02-25 23:26:00,40.1,35.7,30.23,WNW,303,0.0,2.0,84,0.00,,,0.00,0,Wunderground v.1.15,2013-02-26 07:26:00,
2013-02-25 23:31:00,39.9,35.8,30.23,WNW,303,0.0,2.0,85,0.00,,,0.00,0,Wunderground v.1.15,2013-02-26 07:31:00,
2013-02-25 23:37:00,39.7,35.6,30.23,WNW,303,0.0,2.0,85,0.00,,,0.00,0,Wunderground v.1.15,2013-02-26 07:37:00,
2013-02-25 23:44:00,39.4,35.3,30.23,WNW,303,0.0,2.0,85,0.00,,,0.00,0,Wunderground v.1.15,2013-02-26 07:44:00,
2013-02-25 23:49:00,39.2,35.1,30.23,WNW,303,0.0,2.0,85,0.00,,,0.00,0,Wunderground v.1.15,2013-02-26 07:49:00,
2013-02-25 23:55:00,39.0,34.9,30.23,WNW,303,0.0,2.0,85,0.00,,,0.00,0,Wunderground v.1.15,2013-02-26 07:55:00,